createdAt,value
2019-06-01T00:02:19.813Z,6.57
2019-06-01T00:04:49.350Z,6.83
2019-06-01T00:07:19.225Z,8.53
2019-06-01T00:09:47.811Z,7.33
2019-06-01T00:12:16.755Z,6.20
2019-06-01T00:14:48.163Z,7.30
2019-06-01T00:17:16.801Z,7.57
2019-06-01T00:19:46.250Z,6.17
2019-06-01T00:22:15.073Z,6.10
2019-06-01T00:24:44.296Z,6.00
2019-06-01T00:27:12.901Z,6.20
2019-06-01T00:29:42.696Z,6.10
2019-06-01T00:32:11.482Z,6.07
2019-06-01T00:34:41.205Z,6.10
2019-06-01T00:37:09.927Z,6.63
2019-06-01T00:39:38.481Z,6.13
2019-06-01T00:42:07.167Z,6.00
2019-06-01T00:44:35.885Z,6.30
2019-06-01T00:50:36.615Z,6.23
2019-06-01T00:53:05.319Z,6.83
2019-06-01T00:55:33.983Z,6.53
2019-06-01T00:58:05.399Z,6.27
2019-06-01T01:00:43.156Z,7.33
2019-06-01T01:03:04.412Z,6.80
2019-06-01T01:05:33.212Z,7.03
2019-06-01T01:08:01.791Z,7.00
2019-06-01T01:10:30.475Z,7.43
2019-06-01T01:13:10.017Z,5.90
2019-06-01T01:15:39.033Z,6.70
2019-06-01T01:18:09.786Z,6.37
2019-06-01T01:20:39.142Z,6.40
2019-06-01T01:23:09.296Z,6.30
2019-06-01T01:25:38.043Z,5.60
2019-06-01T01:28:06.691Z,5.77
2019-06-01T01:30:35.356Z,7.03
2019-06-01T01:33:03.938Z,6.57
2019-06-01T01:35:32.560Z,7.33
2019-06-01T01:38:01.199Z,6.80
2019-06-01T01:40:29.948Z,6.37
2019-06-01T01:42:59.634Z,6.67
2019-06-01T01:45:29.135Z,6.33
2019-06-01T01:47:59.136Z,6.00
2019-06-01T01:50:28.311Z,6.00
2019-06-01T01:52:57.277Z,5.97
2019-06-01T01:55:26.746Z,6.13
2019-06-01T01:57:55.556Z,7.57
2019-06-01T02:00:43.529Z,7.37
2019-06-01T02:03:12.201Z,9.03
2019-06-01T02:05:43.046Z,7.73
2019-06-01T02:08:11.884Z,8.17
2019-06-01T02:10:40.838Z,6.77
2019-06-01T02:13:09.486Z,7.80
2019-06-01T02:15:39.647Z,7.80
2019-06-01T02:18:08.338Z,7.70
2019-06-01T02:20:37.975Z,6.53
2019-06-01T02:23:25.938Z,7.10
2019-06-01T02:25:55.234Z,6.53
2019-06-01T02:28:23.866Z,7.10
2019-06-01T02:30:53.955Z,6.37
2019-06-01T02:33:22.768Z,6.30
2019-06-01T02:35:51.367Z,6.47
2019-06-01T02:38:19.966Z,6.57
2019-06-01T02:40:48.592Z,7.20
2019-06-01T02:43:17.285Z,7.00
2019-06-01T02:45:45.929Z,6.60
2019-06-01T02:48:14.610Z,7.17
2019-06-01T02:50:43.915Z,6.70
2019-06-01T02:53:12.537Z,6.17
2019-06-01T02:55:41.640Z,7.03
2019-06-01T02:58:10.322Z,7.53
2019-06-01T03:00:59.010Z,6.83
2019-06-01T03:03:29.052Z,7.30
2019-06-01T03:05:59.269Z,6.90
2019-06-01T03:08:28.569Z,7.90
2019-06-01T03:11:01.805Z,7.63
2019-06-01T03:13:33.520Z,7.97
2019-06-01T03:16:03.462Z,8.33
2019-06-01T03:18:35.257Z,8.37
2019-06-01T03:21:06.258Z,8.27
2019-06-01T03:23:36.672Z,9.13
2019-06-01T03:26:08.719Z,9.23
2019-06-01T03:28:42.035Z,8.63
2019-06-01T03:31:10.868Z,9.10
2019-06-01T03:33:39.496Z,9.87
2019-06-01T03:36:09.071Z,9.97
2019-06-01T03:38:37.800Z,9.83
2019-06-01T03:41:06.517Z,9.33
2019-06-01T03:43:35.207Z,9.97
2019-06-01T03:46:04.627Z,10.40
2019-06-01T03:48:33.343Z,10.33
2019-06-01T03:51:02.001Z,9.77
2019-06-01T03:53:30.793Z,10.20
2019-06-01T03:56:01.532Z,11.57
2019-06-01T03:58:30.729Z,10.77
2019-06-01T04:01:03.039Z,9.67
2019-06-01T04:03:31.890Z,10.37
2019-06-01T04:06:01.205Z,10.60
2019-06-01T04:08:29.852Z,9.70
2019-06-01T04:10:59.582Z,10.20
2019-06-01T04:13:28.160Z,9.83
2019-06-01T04:15:56.809Z,10.33
2019-06-01T04:18:27.204Z,10.77
2019-06-01T04:20:55.950Z,10.23
2019-06-01T04:23:24.674Z,10.23
2019-06-01T04:25:53.399Z,10.77
2019-06-01T04:28:22.038Z,10.47
2019-06-01T04:30:50.771Z,9.67
2019-06-01T04:33:21.051Z,10.50
2019-06-01T04:35:49.643Z,9.80
2019-06-01T04:38:22.414Z,10.37
2019-06-01T04:40:51.001Z,9.23
2019-06-01T04:43:19.684Z,10.47
2019-06-01T04:45:48.315Z,9.17
2019-06-01T04:48:16.989Z,9.17
2019-06-01T04:50:47.269Z,9.53
2019-06-01T04:53:16.171Z,8.90
2019-06-01T04:55:44.849Z,9.70
2019-06-01T04:58:13.432Z,9.10
2019-06-01T05:00:45.102Z,8.17
2019-06-01T05:03:13.801Z,8.40
2019-06-01T05:05:42.428Z,7.63
2019-06-01T05:08:12.634Z,8.43
2019-06-01T05:10:41.576Z,9.00
2019-06-01T05:13:13.569Z,9.57
2019-06-01T05:15:42.294Z,8.23
2019-06-01T05:18:12.110Z,8.37
2019-06-01T05:20:42.050Z,8.40
2019-06-01T05:23:10.702Z,7.90
2019-06-01T05:25:42.538Z,8.17
2019-06-01T05:28:18.780Z,8.20
2019-06-01T05:30:47.393Z,8.73
2019-06-01T05:33:31.057Z,8.23
2019-06-01T05:35:47.992Z,8.40
2019-06-01T05:38:19.256Z,7.50
2019-06-01T05:40:47.889Z,7.57
2019-06-01T05:43:19.262Z,5.87
2019-06-01T05:45:46.875Z,6.63
2019-06-01T05:48:22.971Z,6.03
2019-06-01T05:50:45.985Z,6.30
2019-06-01T05:53:14.642Z,6.10
2019-06-01T05:55:43.276Z,5.83
2019-06-01T05:58:12.955Z,5.83
2019-06-01T06:00:43.434Z,5.37
2019-06-01T06:03:15.073Z,5.60
2019-06-01T06:05:42.464Z,5.57
2019-06-01T06:08:14.307Z,5.40
2019-06-01T06:10:46.313Z,5.00
2019-06-01T06:13:15.346Z,4.90
2019-06-01T06:15:44.171Z,4.33
2019-06-01T06:18:15.889Z,4.10
2019-06-01T06:20:44.545Z,4.43
2019-06-01T06:23:14.253Z,4.60
2019-06-01T06:25:45.968Z,4.57
2019-06-01T06:28:14.651Z,4.53
2019-06-01T06:30:44.785Z,3.33
2019-06-01T06:33:13.307Z,4.00
2019-06-01T06:35:41.952Z,3.97
2019-06-01T06:38:10.610Z,4.50
2019-06-01T06:40:39.170Z,4.03
2019-06-01T06:43:19.284Z,4.27
2019-06-01T06:45:38.172Z,4.33
2019-06-01T06:48:09.702Z,3.93
2019-06-01T06:50:40.733Z,3.40
2019-06-01T06:53:24.231Z,2.83
2019-06-01T06:55:39.803Z,2.87
2019-06-01T06:58:14.568Z,3.17
2019-06-01T07:00:43.222Z,2.80
2019-06-01T07:03:15.389Z,4.13
2019-06-01T07:05:43.849Z,2.80
2019-06-01T07:08:12.463Z,2.60
2019-06-01T07:10:41.219Z,2.47
2019-06-01T07:13:09.889Z,2.75
2019-06-01T07:15:39.510Z,2.90
2019-06-01T07:18:19.980Z,2.50
2019-06-01T07:20:49.878Z,2.20
2019-06-01T07:23:19.512Z,3.03
2019-06-01T07:25:55.731Z,2.37
2019-06-01T07:28:24.431Z,2.17
2019-06-01T07:30:53.169Z,2.25
2019-06-01T07:33:22.556Z,1.63
2019-06-01T07:35:52.852Z,1.87
2019-06-01T07:38:22.267Z,2.12
2019-06-01T07:40:52.089Z,1.60
2019-06-01T07:43:22.610Z,1.22
2019-06-01T07:45:53.578Z,1.62
2019-06-01T07:48:24.990Z,1.52
2019-06-01T07:50:53.879Z,1.80
2019-06-01T07:53:29.415Z,1.85
2019-06-01T07:55:59.900Z,1.73
2019-06-01T07:58:29.011Z,1.87
2019-06-01T08:00:57.943Z,1.90
2019-06-01T08:03:32.862Z,1.90
2019-06-01T08:06:00.128Z,1.92
2019-06-01T08:08:53.436Z,1.37
2019-06-01T08:11:25.458Z,1.77
2019-06-01T08:13:53.679Z,1.57
2019-06-01T08:16:25.939Z,1.70
2019-06-01T08:18:54.522Z,1.20
2019-06-01T08:21:23.974Z,0.93
2019-06-01T08:23:52.725Z,1.12
2019-06-01T08:26:42.418Z,1.67
2019-06-01T08:29:11.077Z,1.32
2019-06-01T08:31:42.898Z,1.57
2019-06-01T08:34:13.125Z,1.23
2019-06-01T08:36:44.679Z,1.10
2019-06-01T08:39:15.016Z,0.70
2019-06-01T08:41:43.797Z,0.90
2019-06-01T08:44:17.241Z,0.80
2019-06-01T08:46:45.989Z,0.60
2019-06-01T08:49:16.701Z,1.00
2019-06-01T08:51:48.196Z,0.70
2019-06-01T08:54:16.819Z,0.60
2019-06-01T08:56:46.819Z,0.60
2019-06-01T08:59:15.464Z,1.67
2019-06-01T09:01:44.147Z,1.00
2019-06-01T09:04:12.828Z,0.90
2019-06-01T09:06:42.942Z,1.60
2019-06-01T09:09:12.089Z,0.50
2019-06-01T09:11:42.495Z,0.60
2019-06-01T09:14:11.159Z,0.50
2019-06-01T09:16:48.802Z,0.53
2019-06-01T09:19:23.426Z,0.73
2019-06-01T09:22:03.027Z,0.40
2019-06-01T09:24:34.103Z,0.50
2019-06-01T09:27:02.915Z,0.90
2019-06-01T09:29:32.467Z,0.60
2019-06-01T09:32:01.161Z,0.90
2019-06-01T09:34:30.471Z,13.10
2019-06-01T09:36:59.149Z,0.60
2019-06-01T09:39:29.079Z,0.70
2019-06-01T09:41:57.830Z,0.80
2019-06-01T09:44:26.931Z,0.77
2019-06-01T09:46:56.725Z,0.90
2019-06-01T09:49:25.442Z,0.73
2019-06-01T09:51:55.049Z,1.00
2019-06-01T09:54:24.252Z,1.00
2019-06-01T09:56:53.987Z,0.83
2019-06-01T09:59:22.635Z,0.80
2019-06-01T10:01:51.559Z,1.23
2019-06-01T10:04:21.079Z,1.03
2019-06-01T10:06:49.797Z,0.80
2019-06-01T10:09:38.339Z,0.73
2019-06-01T10:12:08.533Z,0.90
2019-06-01T10:14:42.474Z,1.03
2019-06-01T10:17:13.039Z,1.17
2019-06-01T10:19:43.356Z,1.00
2019-06-01T10:22:13.594Z,0.90
2019-06-01T10:24:44.172Z,1.50
2019-06-01T10:27:12.866Z,1.57
2019-06-01T10:29:43.963Z,1.70
2019-06-01T10:32:14.071Z,1.43
2019-06-01T10:34:46.417Z,1.40
2019-06-01T10:37:33.328Z,1.03
2019-06-01T10:40:02.181Z,1.40
2019-06-01T10:42:32.769Z,1.73
2019-06-01T10:45:02.862Z,1.55
2019-06-01T10:47:31.793Z,1.40
2019-06-01T10:50:00.531Z,2.40
2019-06-01T10:52:29.431Z,2.03
2019-06-01T10:54:58.653Z,1.10
2019-06-01T10:57:28.972Z,1.40
2019-06-01T10:59:57.721Z,2.10
2019-06-01T11:02:28.498Z,2.10
2019-06-01T11:04:58.733Z,1.90
2019-06-01T11:07:27.488Z,1.27
2019-06-01T11:09:57.167Z,1.47
2019-06-01T11:12:25.882Z,1.30
2019-06-01T11:14:55.476Z,1.20
2019-06-01T11:17:24.131Z,1.40
2019-06-01T11:19:53.591Z,1.20
2019-06-01T11:22:25.944Z,1.45
2019-06-01T11:24:54.659Z,1.33
2019-06-01T11:27:25.120Z,1.00
2019-06-01T11:29:53.981Z,0.83
2019-06-01T11:32:25.292Z,1.30
2019-06-01T11:34:56.715Z,1.67
2019-06-01T11:37:28.365Z,1.83
2019-06-01T11:40:06.645Z,3.58
2019-06-01T11:42:36.857Z,2.37
2019-06-01T11:45:08.043Z,1.30
2019-06-01T11:47:36.929Z,1.00
2019-06-01T11:50:10.358Z,1.40
2019-06-01T11:52:41.141Z,1.30
2019-06-01T11:55:11.588Z,1.93
2019-06-01T11:57:41.600Z,1.37
2019-06-01T12:00:12.415Z,0.97
2019-06-01T12:02:42.023Z,0.90
2019-06-01T12:05:10.871Z,1.12
2019-06-01T12:07:41.926Z,1.50
2019-06-01T12:10:13.132Z,1.35
2019-06-01T12:12:58.140Z,1.10
2019-06-01T12:15:27.484Z,0.80
2019-06-01T12:17:59.274Z,0.82
2019-06-01T12:20:31.564Z,0.97
2019-06-01T12:23:02.412Z,0.60
2019-06-01T12:25:31.228Z,0.70
2019-06-01T12:28:00.152Z,0.70
2019-06-01T12:30:29.027Z,0.90
2019-06-01T12:32:57.888Z,0.87
2019-06-01T12:35:27.730Z,1.00
2019-06-01T12:38:06.116Z,0.90
2019-06-01T12:40:29.680Z,0.95
2019-06-01T12:42:59.930Z,0.62
2019-06-01T12:45:30.168Z,0.50
2019-06-01T12:47:58.981Z,1.60
2019-06-01T12:50:28.025Z,0.77
2019-06-01T12:52:56.884Z,0.98
2019-06-01T12:55:25.692Z,1.60
2019-06-01T12:57:54.666Z,1.98
2019-06-01T13:00:23.818Z,1.10
2019-06-01T13:03:03.718Z,0.70
2019-06-01T13:05:24.314Z,1.20
2019-06-01T13:08:01.814Z,1.30
2019-06-01T13:10:23.782Z,1.50
2019-06-01T13:12:54.184Z,1.90
2019-06-01T13:15:26.877Z,1.65
2019-06-01T13:17:57.104Z,1.67
2019-06-01T13:20:29.307Z,1.30
2019-06-01T13:22:58.051Z,1.27
2019-06-01T13:25:27.037Z,0.95
2019-06-01T13:27:56.356Z,1.07
2019-06-01T13:30:25.950Z,0.68
2019-06-01T13:32:55.663Z,1.07
2019-06-01T13:35:24.307Z,0.80
2019-06-01T13:38:10.755Z,1.13
2019-06-01T13:40:25.570Z,0.75
2019-06-01T13:42:54.263Z,0.80
2019-06-01T13:45:22.927Z,0.70
2019-06-01T13:47:51.906Z,1.17
2019-06-01T13:50:22.183Z,0.90
2019-06-01T13:52:52.627Z,0.60
2019-06-01T13:55:22.450Z,0.55
2019-06-01T13:57:52.340Z,0.70
2019-06-01T14:00:30.351Z,1.25
2019-06-01T14:02:54.737Z,0.95
2019-06-01T14:05:23.775Z,1.05
2019-06-01T14:07:55.756Z,1.00
2019-06-01T14:10:24.584Z,1.00
2019-06-01T14:12:53.471Z,0.68
2019-06-01T14:15:22.391Z,0.50
2019-06-01T14:17:54.680Z,0.90
2019-06-01T14:20:27.445Z,1.00
2019-06-01T14:22:56.098Z,1.00
2019-06-01T14:25:26.184Z,1.32
2019-06-01T14:27:56.322Z,1.45
2019-06-01T14:30:26.486Z,1.55
2019-06-01T14:32:56.743Z,0.90
2019-06-01T14:35:25.677Z,1.40
2019-06-01T14:37:55.159Z,1.20
2019-06-01T14:40:24.162Z,0.82
2019-06-01T14:42:53.669Z,0.88
2019-06-01T14:45:23.807Z,1.35
2019-06-01T14:47:53.510Z,0.90
2019-06-01T14:50:24.815Z,1.55
2019-06-01T14:52:53.781Z,1.15
2019-06-01T14:55:23.603Z,1.20
2019-06-01T14:57:53.969Z,1.10
2019-06-01T15:00:24.450Z,2.75
2019-06-01T15:02:56.205Z,1.20
2019-06-01T15:05:28.155Z,0.90
2019-06-01T15:08:08.172Z,1.17
2019-06-01T15:10:38.463Z,1.77
2019-06-01T15:13:07.443Z,1.32
2019-06-01T15:15:36.296Z,1.20
2019-06-01T15:18:05.457Z,0.82
2019-06-01T15:20:34.403Z,1.12
2019-06-01T15:23:03.705Z,0.90
2019-06-01T15:25:32.611Z,1.22
2019-06-01T15:28:04.061Z,1.03
2019-06-01T15:30:34.724Z,1.00
2019-06-01T15:33:04.607Z,1.85
2019-06-01T15:35:33.250Z,1.07
2019-06-01T15:38:04.404Z,1.07
2019-06-01T15:40:32.363Z,0.80
2019-06-01T15:43:03.802Z,1.40
2019-06-01T15:45:32.442Z,0.95
2019-06-01T15:48:02.423Z,2.98
2019-06-01T15:50:31.227Z,1.72
2019-06-01T15:53:01.278Z,2.12
2019-06-01T15:55:32.909Z,1.20
2019-06-01T15:58:03.039Z,1.50
2019-06-01T16:00:33.935Z,1.60
2019-06-01T16:03:07.048Z,1.07
2019-06-01T16:05:35.945Z,1.45
2019-06-01T16:08:06.506Z,1.10
2019-06-01T16:10:35.101Z,1.22
2019-06-01T16:13:04.465Z,2.22
2019-06-01T16:15:34.762Z,1.32
2019-06-01T16:18:04.284Z,1.22
2019-06-01T16:20:33.601Z,1.20
2019-06-01T16:23:02.583Z,0.93
2019-06-01T16:25:31.293Z,4.03
2019-06-01T16:28:00.902Z,0.90
2019-06-01T16:30:29.860Z,0.85
2019-06-01T16:32:58.608Z,0.98
2019-06-01T16:35:27.318Z,1.32
2019-06-01T16:37:57.336Z,2.37
2019-06-01T16:40:28.886Z,0.87
2019-06-01T16:42:57.663Z,1.00
2019-06-01T16:45:26.332Z,0.87
2019-06-01T16:47:57.413Z,1.57
2019-06-01T16:50:31.454Z,1.45
2019-06-01T16:53:00.240Z,1.32
2019-06-01T16:55:31.479Z,1.30
2019-06-01T16:58:01.643Z,1.23
2019-06-01T17:00:30.522Z,1.00
2019-06-01T17:03:00.610Z,1.27
2019-06-01T17:05:30.026Z,1.82
2019-06-01T17:08:00.689Z,1.00
2019-06-01T17:10:32.220Z,1.27
2019-06-01T17:13:01.586Z,2.58
2019-06-01T17:15:33.580Z,2.37
2019-06-01T17:18:09.666Z,1.70
2019-06-01T17:20:40.987Z,1.63
2019-06-01T17:23:26.246Z,1.20
2019-06-01T17:25:42.168Z,0.70
2019-06-01T17:28:12.440Z,1.97
2019-06-01T17:30:41.068Z,1.43
2019-06-01T17:33:09.846Z,0.70
2019-06-01T17:35:38.461Z,1.42
2019-06-01T17:38:14.816Z,1.10
2019-06-01T17:40:43.970Z,1.75
2019-06-01T17:43:16.485Z,1.77
2019-06-01T17:45:50.956Z,2.25
2019-06-01T17:48:26.845Z,1.47
2019-06-01T17:51:00.377Z,1.50
2019-06-01T17:53:30.030Z,1.95
2019-06-01T17:56:08.160Z,3.87
2019-06-01T17:58:43.564Z,3.12
2019-06-01T18:01:15.874Z,1.90
2019-06-01T18:03:45.611Z,2.40
2019-06-01T18:06:15.853Z,2.05
2019-06-01T18:08:47.911Z,3.83
2019-06-01T18:11:22.706Z,2.60
2019-06-01T18:13:53.833Z,2.80
2019-06-01T18:16:22.488Z,3.03
2019-06-01T18:18:54.798Z,1.93
2019-06-01T18:21:28.102Z,2.42
2019-06-01T18:24:06.653Z,4.85
2019-06-01T18:26:42.427Z,3.40
2019-06-01T18:29:12.740Z,3.20
2019-06-01T18:31:41.959Z,1.52
2019-06-01T18:34:11.765Z,0.70
2019-06-01T18:36:42.160Z,1.87
2019-06-01T18:39:11.789Z,0.90
2019-06-01T18:41:42.806Z,1.02
2019-06-01T18:44:11.879Z,1.23
2019-06-01T18:46:40.751Z,1.33
2019-06-01T18:49:18.302Z,1.92
2019-06-01T18:51:48.657Z,1.40
2019-06-01T18:54:18.662Z,2.03
2019-06-01T18:56:50.499Z,2.10
2019-06-01T18:59:23.557Z,1.70
2019-06-01T19:01:51.611Z,0.97
2019-06-01T19:04:23.026Z,1.22
2019-06-01T19:06:52.361Z,2.23
2019-06-01T19:09:22.549Z,1.30
2019-06-01T19:11:52.309Z,1.90
2019-06-01T19:14:20.908Z,1.77
2019-06-01T19:16:49.505Z,2.10
2019-06-01T19:19:19.013Z,2.00
2019-06-01T19:21:47.774Z,1.80
2019-06-01T19:24:17.731Z,3.67
2019-06-01T19:26:46.434Z,2.33
2019-06-01T19:29:17.831Z,1.50
2019-06-01T19:31:46.384Z,2.37
2019-06-01T19:34:17.201Z,2.50
2019-06-01T19:36:47.778Z,2.40
2019-06-01T19:39:26.642Z,2.20
2019-06-01T19:41:55.341Z,2.20
2019-06-01T19:44:27.684Z,3.07
2019-06-01T19:46:56.877Z,2.80
2019-06-01T19:49:30.302Z,1.90
2019-06-01T19:52:14.813Z,3.40
2019-06-01T19:54:46.405Z,4.10
2019-06-01T19:57:23.711Z,3.37
2019-06-01T19:59:53.574Z,4.57
2019-06-01T20:02:33.688Z,3.60
2019-06-01T20:05:02.038Z,2.80
2019-06-01T20:07:32.153Z,3.17
2019-06-01T20:10:01.300Z,2.80
2019-06-01T20:12:30.360Z,2.43
2019-06-01T20:15:07.941Z,3.13
2019-06-01T20:17:43.621Z,3.20
2019-06-01T20:20:14.776Z,2.87
2019-06-01T20:22:47.854Z,3.30
2019-06-01T20:25:19.574Z,3.17
2019-06-01T20:27:50.289Z,3.20
2019-06-01T20:30:26.443Z,3.23
2019-06-01T20:32:55.057Z,3.20
2019-06-01T20:35:26.651Z,2.37
2019-06-01T20:37:55.230Z,2.80
2019-06-01T20:40:29.418Z,2.90
2019-06-01T20:42:58.170Z,2.77
2019-06-01T20:45:33.919Z,2.97
2019-06-01T20:48:05.878Z,2.27
2019-06-01T20:50:34.569Z,2.63
2019-06-01T20:53:05.645Z,3.37
2019-06-01T20:55:35.726Z,3.97
2019-06-01T20:58:05.054Z,2.83
2019-06-01T21:00:33.895Z,3.03
2019-06-01T21:03:03.257Z,3.13
2019-06-01T21:05:31.942Z,2.80
2019-06-01T21:08:03.644Z,3.33
2019-06-01T21:10:32.289Z,3.80
2019-06-01T21:13:02.160Z,3.10
2019-06-01T21:15:30.879Z,3.10
2019-06-01T21:18:01.202Z,3.10
2019-06-01T21:20:32.023Z,3.20
2019-06-01T21:23:00.590Z,3.70
2019-06-01T21:25:29.253Z,4.57
2019-06-01T21:27:57.869Z,4.33
2019-06-01T21:30:26.541Z,4.33
2019-06-01T21:32:55.261Z,5.10
2019-06-01T21:35:23.872Z,4.47
2019-06-01T21:37:52.595Z,4.17
2019-06-01T21:40:21.546Z,4.70
2019-06-01T21:43:01.091Z,4.37
2019-06-01T21:45:21.726Z,5.00
2019-06-01T21:47:52.757Z,4.10
2019-06-01T21:50:23.969Z,4.43
2019-06-01T21:52:54.798Z,3.90
2019-06-01T21:55:24.468Z,5.13
2019-06-01T21:57:53.331Z,6.83
2019-06-01T22:00:29.391Z,6.03
2019-06-01T22:02:59.534Z,4.77
2019-06-01T22:05:31.083Z,5.07
2019-06-01T22:07:59.807Z,4.67
2019-06-01T22:10:28.584Z,4.90
2019-06-01T22:12:57.238Z,4.17
2019-06-01T22:15:26.411Z,4.50
2019-06-01T22:17:55.083Z,4.90
2019-06-01T22:20:24.093Z,4.40
2019-06-01T22:22:53.166Z,4.87
2019-06-01T22:25:22.262Z,5.30
2019-06-01T22:27:51.149Z,4.10
2019-06-01T22:30:20.392Z,4.77
2019-06-01T22:32:51.701Z,4.20
2019-06-01T22:35:20.884Z,3.97
2019-06-01T22:37:50.523Z,4.80
2019-06-01T22:40:19.697Z,4.50
2019-06-01T22:42:50.667Z,4.03
2019-06-01T22:45:22.101Z,4.27
2019-06-01T22:47:50.833Z,3.90
2019-06-01T22:50:20.713Z,3.50
2019-06-01T22:52:49.518Z,3.20
2019-06-01T22:55:20.045Z,3.40
2019-06-01T22:57:48.941Z,3.40
2019-06-01T23:00:18.726Z,3.27
2019-06-01T23:02:58.815Z,3.37
2019-06-01T23:05:27.435Z,3.73
2019-06-01T23:07:56.296Z,3.33
2019-06-01T23:10:29.976Z,3.27
2019-06-01T23:12:55.848Z,3.67
2019-06-01T23:15:35.476Z,4.00
2019-06-01T23:18:06.935Z,3.37
2019-06-01T23:20:39.312Z,3.13
2019-06-01T23:23:11.035Z,3.47
2019-06-01T23:25:41.532Z,2.80
2019-06-01T23:28:10.254Z,3.10
2019-06-01T23:30:42.038Z,2.97
2019-06-01T23:33:13.367Z,2.67
2019-06-01T23:35:42.021Z,3.00
2019-06-01T23:38:22.421Z,3.43
2019-06-01T23:40:51.981Z,2.90
2019-06-01T23:43:22.643Z,3.37
2019-06-01T23:45:52.150Z,3.27
2019-06-01T23:48:20.786Z,3.10
2019-06-01T23:50:49.818Z,3.30
2019-06-01T23:53:18.503Z,3.60
2019-06-01T23:55:49.011Z,3.53
2019-06-01T23:58:21.600Z,3.73
